createdAt,value
2023-04-24T00:01:59.598Z,1.27
2023-04-24T00:04:27.917Z,1.33
2023-04-24T00:06:55.387Z,1.57
2023-04-24T00:09:22.911Z,1.70
2023-04-24T00:11:50.446Z,1.90
2023-04-24T00:14:18.049Z,1.30
2023-04-24T00:16:45.670Z,1.63
2023-04-24T00:19:13.998Z,1.70
2023-04-24T00:21:41.452Z,2.10
2023-04-24T00:24:08.965Z,1.97
2023-04-24T00:26:37.292Z,1.70
2023-04-24T00:29:05.245Z,2.30
2023-04-24T00:31:32.792Z,2.60
2023-04-24T00:34:01.065Z,2.50
2023-04-24T00:36:28.647Z,2.50
2023-04-24T00:38:56.180Z,2.20
2023-04-24T00:41:23.707Z,2.53
2023-04-24T00:43:51.291Z,2.37
2023-04-24T00:46:18.848Z,2.53
2023-04-24T00:48:46.362Z,2.93
2023-04-24T00:51:13.954Z,2.90
2023-04-24T00:53:42.247Z,2.47
2023-04-24T00:56:09.780Z,3.10
2023-04-24T00:58:39.363Z,2.87
2023-04-24T01:01:06.061Z,2.80
2023-04-24T01:03:33.729Z,3.13
2023-04-24T01:06:01.157Z,2.77
2023-04-24T01:08:28.689Z,2.70
2023-04-24T01:10:56.981Z,3.23
2023-04-24T01:13:25.410Z,2.83
2023-04-24T01:15:52.990Z,3.10
2023-04-24T01:18:21.217Z,3.03
2023-04-24T01:20:49.610Z,2.80
2023-04-24T01:23:17.153Z,3.20
2023-04-24T01:25:45.456Z,3.47
2023-04-24T01:28:12.981Z,3.57
2023-04-24T01:30:41.278Z,3.40
2023-04-24T01:33:08.811Z,3.27
2023-04-24T01:35:36.384Z,4.37
2023-04-24T01:38:04.678Z,4.27
2023-04-24T01:40:32.199Z,3.63
2023-04-24T01:42:59.746Z,3.70
2023-04-24T01:45:27.270Z,3.70
2023-04-24T01:47:54.822Z,5.05
2023-04-24T01:50:22.489Z,4.60
2023-04-24T01:52:49.964Z,5.27
2023-04-24T01:55:17.501Z,5.07
2023-04-24T01:57:45.088Z,5.90
2023-04-24T02:00:12.655Z,5.40
2023-04-24T02:02:44.910Z,5.03
2023-04-24T02:05:10.405Z,4.50
2023-04-24T02:07:37.924Z,4.70
2023-04-24T02:10:06.345Z,5.07
2023-04-24T02:12:34.911Z,4.67
2023-04-24T02:15:02.445Z,6.05
2023-04-24T02:17:29.978Z,5.20
2023-04-24T02:19:57.505Z,5.43
2023-04-24T02:22:25.059Z,6.07
2023-04-24T02:24:52.590Z,5.07
2023-04-24T02:27:20.935Z,5.00
2023-04-24T02:29:48.451Z,5.47
2023-04-24T02:32:16.019Z,5.70
2023-04-24T02:34:44.334Z,5.97
2023-04-24T02:37:11.899Z,5.60
2023-04-24T02:39:39.428Z,5.87
2023-04-24T02:42:06.947Z,6.03
2023-04-24T02:44:34.515Z,6.17
2023-04-24T02:47:02.099Z,6.57
2023-04-24T02:49:29.633Z,6.93
2023-04-24T02:51:57.177Z,6.10
2023-04-24T02:54:25.530Z,6.83
2023-04-24T02:56:53.041Z,6.90
2023-04-24T02:59:20.579Z,8.27
2023-04-24T03:01:48.234Z,7.13
2023-04-24T03:04:15.933Z,6.90
2023-04-24T03:06:43.426Z,7.03
2023-04-24T03:09:11.327Z,6.70
2023-04-24T03:11:38.860Z,7.03
2023-04-24T03:14:06.378Z,7.67
2023-04-24T03:16:34.149Z,7.60
2023-04-24T03:19:02.298Z,7.27
2023-04-24T03:21:29.800Z,7.63
2023-04-24T03:23:57.367Z,8.43
2023-04-24T03:26:25.680Z,8.00
2023-04-24T03:28:53.193Z,7.47
2023-04-24T03:31:21.341Z,8.60
2023-04-24T03:33:48.845Z,7.77
2023-04-24T03:36:17.137Z,7.50
2023-04-24T03:38:44.721Z,9.20
2023-04-24T03:41:12.254Z,8.07
2023-04-24T03:43:39.792Z,8.17
2023-04-24T03:46:07.434Z,6.93
2023-04-24T03:48:34.961Z,6.90
2023-04-24T03:51:02.501Z,7.57
2023-04-24T03:53:30.569Z,7.37
2023-04-24T03:55:58.107Z,7.90
2023-04-24T03:58:25.637Z,7.27
2023-04-24T04:00:53.205Z,7.30
2023-04-24T04:03:20.905Z,6.07
2023-04-24T04:05:48.265Z,6.70
2023-04-24T04:08:15.862Z,8.82
2023-04-24T04:10:43.387Z,7.30
2023-04-24T04:13:11.672Z,7.87
2023-04-24T04:15:39.248Z,6.50
2023-04-24T04:18:06.826Z,6.53
2023-04-24T04:20:34.385Z,6.90
2023-04-24T04:23:01.906Z,5.73
2023-04-24T04:25:29.424Z,6.03
2023-04-24T04:27:57.706Z,5.93
2023-04-24T04:30:26.326Z,5.47
2023-04-24T04:32:53.855Z,5.40
2023-04-24T04:35:23.144Z,5.90
2023-04-24T04:37:49.722Z,5.80
2023-04-24T04:40:17.245Z,5.50
2023-04-24T04:42:45.544Z,4.70
2023-04-24T04:45:13.333Z,5.17
2023-04-24T04:47:41.535Z,5.37
2023-04-24T04:50:09.112Z,5.63
2023-04-24T04:52:36.661Z,5.43
2023-04-24T04:55:04.183Z,6.07
2023-04-24T04:57:31.713Z,5.43
2023-04-24T04:59:59.275Z,5.47
2023-04-24T05:02:26.904Z,5.00
2023-04-24T05:04:54.504Z,5.23
2023-04-24T05:07:22.062Z,5.53
2023-04-24T05:09:49.593Z,4.67
2023-04-24T05:12:17.903Z,4.90
2023-04-24T05:14:45.509Z,4.50
2023-04-24T05:17:13.077Z,4.73
2023-04-24T05:19:40.679Z,4.63
2023-04-24T05:22:08.899Z,4.77
2023-04-24T05:24:36.431Z,4.97
2023-04-24T05:27:03.959Z,5.57
2023-04-24T05:29:32.259Z,5.30
2023-04-24T05:31:59.783Z,4.87
2023-04-24T05:34:27.311Z,4.67
2023-04-24T05:36:54.847Z,5.33
2023-04-24T05:39:22.375Z,6.03
2023-04-24T05:41:49.906Z,5.10
2023-04-24T05:44:18.214Z,5.57
2023-04-24T05:46:45.838Z,5.60
2023-04-24T05:49:13.301Z,5.63
2023-04-24T05:51:41.902Z,5.87
2023-04-24T05:54:09.438Z,5.87
2023-04-24T05:56:37.743Z,5.93
2023-04-24T05:59:05.347Z,5.70
2023-04-24T06:01:32.868Z,6.40
2023-04-24T06:04:00.650Z,5.93
2023-04-24T06:06:28.814Z,6.20
2023-04-24T06:08:56.335Z,6.47
2023-04-24T06:11:24.626Z,6.70
2023-04-24T06:13:52.969Z,6.30
2023-04-24T06:16:20.501Z,6.50
2023-04-24T06:18:48.044Z,6.93
2023-04-24T06:21:17.424Z,6.33
2023-04-24T06:23:44.879Z,6.80
2023-04-24T06:26:12.448Z,6.27
2023-04-24T06:28:40.010Z,5.93
2023-04-24T06:31:07.526Z,6.60
2023-04-24T06:33:35.099Z,6.07
2023-04-24T06:36:02.642Z,6.20
2023-04-24T06:38:30.192Z,5.70
2023-04-24T06:40:57.719Z,7.07
2023-04-24T06:43:25.269Z,6.10
2023-04-24T06:45:52.826Z,5.70
2023-04-24T06:48:21.114Z,5.80
2023-04-24T06:50:48.648Z,5.57
2023-04-24T06:53:16.203Z,6.33
2023-04-24T06:55:44.472Z,6.03
2023-04-24T06:58:12.814Z,5.70
2023-04-24T07:00:40.346Z,5.63
2023-04-24T07:03:07.982Z,5.43
2023-04-24T07:05:36.261Z,5.57
2023-04-24T07:08:03.750Z,4.90
2023-04-24T07:10:31.266Z,5.27
2023-04-24T07:12:59.630Z,5.27
2023-04-24T07:15:27.948Z,5.47
2023-04-24T07:17:55.520Z,5.67
2023-04-24T07:20:23.032Z,5.70
2023-04-24T07:22:51.326Z,5.70
2023-04-24T07:25:18.867Z,5.53
2023-04-24T07:27:46.552Z,5.30
2023-04-24T07:30:14.094Z,5.20
2023-04-24T07:32:42.431Z,5.47
2023-04-24T07:35:10.128Z,5.80
2023-04-24T07:37:38.438Z,5.23
2023-04-24T07:40:06.031Z,5.67
2023-04-24T07:42:33.617Z,6.03
2023-04-24T07:45:01.923Z,7.25
2023-04-24T07:47:29.487Z,6.40
2023-04-24T07:49:57.809Z,6.00
2023-04-24T07:52:25.338Z,6.37
2023-04-24T07:54:52.875Z,6.97
2023-04-24T07:57:20.475Z,6.10
2023-04-24T07:59:48.006Z,6.80
2023-04-24T08:02:15.625Z,5.30
2023-04-24T08:04:43.339Z,5.43
2023-04-24T08:07:11.480Z,6.90
2023-04-24T08:09:39.021Z,6.27
2023-04-24T08:12:07.419Z,6.03
2023-04-24T08:14:36.019Z,5.63
2023-04-24T08:17:04.277Z,6.50
2023-04-24T08:19:31.877Z,6.30
2023-04-24T08:21:59.417Z,6.63
2023-04-24T08:24:26.926Z,5.70
2023-04-24T08:26:54.920Z,6.23
2023-04-24T08:29:22.800Z,6.00
2023-04-24T08:31:50.348Z,6.60
2023-04-24T08:34:17.916Z,6.23
2023-04-24T08:36:47.434Z,6.20
2023-04-24T08:39:13.030Z,6.77
2023-04-24T08:41:41.369Z,7.57
2023-04-24T08:44:10.618Z,8.03
2023-04-24T08:46:36.603Z,9.30
2023-04-24T08:49:04.193Z,7.70
2023-04-24T08:51:32.475Z,7.73
2023-04-24T08:53:59.984Z,7.10
2023-04-24T08:56:27.656Z,7.80
2023-04-24T08:58:55.190Z,7.60
2023-04-24T09:01:22.739Z,8.73
2023-04-24T09:03:50.442Z,7.30
2023-04-24T09:06:17.844Z,6.83
2023-04-24T09:08:45.403Z,7.17
2023-04-24T09:11:12.986Z,6.70
2023-04-24T09:13:40.519Z,7.03
2023-04-24T09:16:08.188Z,7.60
2023-04-24T09:18:36.499Z,6.40
2023-04-24T09:21:04.047Z,6.17
2023-04-24T09:23:31.569Z,5.80
2023-04-24T09:25:59.137Z,5.10
2023-04-24T09:28:32.418Z,4.97
2023-04-24T09:31:06.638Z,4.50
2023-04-24T09:33:34.195Z,4.83
2023-04-24T09:36:01.704Z,4.23
2023-04-24T09:38:32.272Z,4.47
2023-04-24T09:41:05.222Z,4.50
2023-04-24T09:43:32.767Z,4.47
2023-04-24T09:46:00.365Z,5.65
2023-04-24T09:48:31.414Z,5.00
2023-04-24T09:50:58.938Z,5.20
2023-04-24T09:53:27.085Z,4.87
2023-04-24T09:55:54.600Z,4.23
2023-04-24T09:58:28.620Z,4.67
2023-04-24T10:00:56.216Z,5.18
2023-04-24T10:03:26.424Z,4.43
2023-04-24T10:05:53.828Z,4.60
2023-04-24T10:08:21.420Z,5.23
2023-04-24T10:10:48.946Z,3.97
2023-04-24T10:13:16.478Z,3.97
2023-04-24T10:15:44.654Z,4.27
2023-04-24T10:18:12.542Z,4.85
2023-04-24T10:20:40.768Z,4.10
2023-04-24T10:23:08.332Z,3.77
2023-04-24T10:25:35.896Z,4.03
2023-04-24T10:28:03.452Z,4.80
2023-04-24T10:30:31.117Z,4.53
2023-04-24T10:32:58.677Z,4.77
2023-04-24T10:35:26.942Z,4.57
2023-04-24T10:38:09.659Z,4.47
2023-04-24T10:40:37.204Z,4.67
2023-04-24T10:43:04.753Z,4.63
2023-04-24T10:45:32.311Z,4.83
2023-04-24T10:47:59.908Z,4.77
2023-04-24T10:50:28.164Z,4.00
2023-04-24T10:52:55.746Z,4.00
2023-04-24T10:55:41.365Z,5.13
2023-04-24T10:58:09.725Z,4.30
2023-04-24T11:00:40.252Z,4.20
2023-04-24T11:03:07.915Z,4.93
2023-04-24T11:05:53.748Z,5.00
2023-04-24T11:08:24.029Z,5.10
2023-04-24T11:11:03.512Z,6.60
2023-04-24T11:13:55.368Z,5.80
2023-04-24T11:16:23.839Z,6.17
2023-04-24T11:18:54.151Z,6.27
2023-04-24T11:21:21.700Z,6.90
2023-04-24T11:23:49.264Z,6.13
2023-04-24T11:26:19.783Z,6.17
2023-04-24T11:28:50.388Z,6.13
2023-04-24T11:31:36.058Z,5.77
2023-04-24T11:34:12.615Z,5.80
2023-04-24T11:36:40.167Z,5.90
2023-04-24T11:39:08.703Z,7.10
2023-04-24T11:41:36.249Z,6.93
2023-04-24T11:44:04.546Z,6.77
2023-04-24T11:46:32.167Z,5.70
2023-04-24T11:48:59.661Z,5.60
2023-04-24T11:51:30.654Z,7.13
2023-04-24T11:54:03.704Z,6.10
2023-04-24T11:56:25.747Z,6.60
2023-04-24T11:58:55.983Z,6.77
2023-04-24T12:01:23.615Z,6.20
2023-04-24T12:03:51.299Z,6.50
2023-04-24T12:06:18.724Z,6.30
2023-04-24T12:08:49.812Z,6.03
2023-04-24T12:11:17.341Z,6.63
2023-04-24T12:13:44.902Z,6.33
2023-04-24T12:16:12.529Z,6.80
2023-04-24T12:18:42.940Z,5.80
2023-04-24T12:21:23.284Z,6.73
2023-04-24T12:23:50.187Z,6.95
2023-04-24T12:26:17.693Z,6.93
2023-04-24T12:28:45.279Z,6.67
2023-04-24T12:31:12.858Z,5.83
2023-04-24T12:33:40.483Z,5.63
2023-04-24T12:36:08.179Z,6.30
2023-04-24T12:38:35.716Z,5.43
2023-04-24T12:41:07.113Z,5.77
2023-04-24T12:43:34.685Z,5.53
2023-04-24T12:46:02.264Z,6.07
2023-04-24T12:48:29.791Z,6.25
2023-04-24T12:51:00.003Z,5.30
2023-04-24T12:53:27.526Z,5.00
2023-04-24T12:55:55.072Z,5.27
2023-04-24T12:58:22.630Z,4.93
2023-04-24T13:00:50.983Z,5.20
2023-04-24T13:03:18.620Z,4.70
2023-04-24T13:05:46.813Z,5.10
2023-04-24T13:08:14.337Z,4.50
2023-04-24T13:10:41.896Z,4.50
2023-04-24T13:13:09.471Z,4.73
2023-04-24T13:15:37.013Z,4.73
2023-04-24T13:18:04.591Z,4.40
2023-04-24T13:20:32.166Z,4.27
2023-04-24T13:23:00.153Z,4.50
2023-04-24T13:25:27.691Z,4.70
2023-04-24T13:27:55.288Z,5.00
2023-04-24T13:30:23.576Z,4.57
2023-04-24T13:32:52.252Z,4.53
2023-04-24T13:35:19.815Z,5.00
2023-04-24T13:37:48.122Z,4.73
2023-04-24T13:40:15.640Z,4.87
2023-04-24T13:42:44.793Z,4.70
2023-04-24T13:45:23.830Z,5.15
2023-04-24T13:47:40.007Z,5.63
2023-04-24T13:50:07.651Z,5.63
2023-04-24T13:52:35.179Z,6.27
2023-04-24T13:55:03.482Z,5.93
2023-04-24T13:57:31.357Z,6.20
2023-04-24T13:59:58.880Z,6.67
2023-04-24T14:02:27.332Z,6.43
2023-04-24T14:04:54.881Z,6.47
2023-04-24T14:07:22.305Z,6.40
2023-04-24T14:09:49.840Z,6.67
2023-04-24T14:12:18.185Z,6.20
2023-04-24T14:14:45.733Z,6.67
2023-04-24T14:17:13.260Z,6.63
2023-04-24T14:19:40.836Z,6.50
2023-04-24T14:22:08.369Z,5.80
2023-04-24T14:24:36.683Z,6.03
2023-04-24T14:27:04.539Z,5.13
2023-04-24T14:29:33.148Z,6.07
2023-04-24T14:31:59.661Z,5.80
2023-04-24T14:34:27.140Z,5.33
2023-04-24T14:36:54.679Z,4.77
2023-04-24T14:39:22.224Z,3.70
2023-04-24T14:41:50.543Z,2.93
2023-04-24T14:44:18.089Z,3.03
2023-04-24T14:46:45.636Z,3.00
2023-04-24T14:49:13.207Z,3.30
2023-04-24T14:51:40.732Z,3.00
2023-04-24T14:54:08.261Z,2.50
2023-04-24T14:56:36.707Z,2.73
2023-04-24T14:59:04.132Z,2.13
2023-04-24T15:01:31.719Z,2.70
2023-04-24T15:04:00.276Z,2.80
2023-04-24T15:06:27.564Z,2.57
2023-04-24T15:08:55.084Z,3.20
2023-04-24T15:11:22.657Z,2.73
2023-04-24T15:13:50.190Z,2.53
2023-04-24T15:16:18.542Z,2.67
2023-04-24T15:18:46.102Z,2.50
2023-04-24T15:21:13.632Z,2.43
2023-04-24T15:23:41.179Z,2.10
2023-04-24T15:26:09.735Z,1.97
2023-04-24T15:28:37.265Z,1.77
2023-04-24T15:31:05.576Z,1.70
2023-04-24T15:33:33.233Z,1.40
2023-04-24T15:36:00.776Z,1.53
2023-04-24T15:38:29.062Z,1.40
2023-04-24T15:40:56.636Z,1.83
2023-04-24T15:43:24.156Z,2.10
2023-04-24T15:45:52.487Z,2.10
2023-04-24T15:48:20.768Z,2.33
2023-04-24T15:50:48.281Z,2.50
2023-04-24T15:53:15.810Z,2.20
2023-04-24T15:55:43.411Z,2.20
2023-04-24T15:58:10.942Z,2.50
2023-04-24T16:00:39.276Z,2.30
2023-04-24T16:03:09.326Z,2.63
2023-04-24T16:05:34.371Z,2.87
2023-04-24T16:08:01.921Z,3.20
2023-04-24T16:10:29.490Z,3.17
2023-04-24T16:12:57.022Z,2.80
2023-04-24T16:15:25.321Z,3.33
2023-04-24T16:17:52.918Z,3.23
2023-04-24T16:20:20.436Z,2.97
2023-04-24T16:22:47.962Z,3.20
2023-04-24T16:25:16.323Z,3.17
2023-04-24T16:27:43.847Z,3.97
2023-04-24T16:30:11.601Z,3.17
2023-04-24T16:32:39.254Z,2.83
2023-04-24T16:35:06.771Z,3.37
2023-04-24T16:37:34.320Z,3.65
2023-04-24T16:40:01.863Z,3.90
2023-04-24T16:42:29.403Z,3.67
2023-04-24T16:44:56.966Z,3.78
2023-04-24T16:47:24.699Z,3.63
2023-04-24T16:49:52.066Z,3.30
2023-04-24T16:52:19.595Z,3.50
2023-04-24T16:54:47.945Z,3.73
2023-04-24T16:57:15.484Z,3.33
2023-04-24T16:59:43.038Z,3.23
2023-04-24T17:02:10.698Z,3.40
2023-04-24T17:04:38.251Z,3.43
2023-04-24T17:07:05.754Z,4.05
2023-04-24T17:09:33.311Z,3.80
2023-04-24T17:12:00.851Z,3.67
2023-04-24T17:14:28.378Z,2.55
2023-04-24T17:16:56.042Z,2.57
2023-04-24T17:19:23.528Z,2.30
2023-04-24T17:21:51.048Z,2.37
2023-04-24T17:24:19.339Z,2.20
2023-04-24T17:26:46.907Z,2.20
2023-04-24T17:29:15.581Z,2.40
2023-04-24T17:31:43.169Z,2.60
2023-04-24T17:34:11.408Z,3.10
2023-04-24T17:36:38.941Z,3.20
2023-04-24T17:39:07.275Z,2.33
2023-04-24T17:41:34.805Z,2.60
2023-04-24T17:44:02.377Z,3.50
2023-04-24T17:46:30.015Z,3.20
2023-04-24T17:48:57.499Z,2.90
2023-04-24T17:51:25.054Z,3.60
2023-04-24T17:53:52.694Z,3.20
2023-04-24T17:56:20.311Z,3.13
2023-04-24T17:58:48.149Z,3.80
2023-04-24T18:01:16.235Z,3.67
2023-04-24T18:03:46.671Z,3.43
2023-04-24T18:06:13.981Z,3.90
2023-04-24T18:08:41.565Z,4.23
2023-04-24T18:11:09.107Z,3.93
2023-04-24T18:13:36.718Z,3.90
2023-04-24T18:16:04.322Z,3.83
2023-04-24T18:18:32.579Z,3.83
2023-04-24T18:21:00.122Z,4.07
2023-04-24T18:23:28.041Z,3.97
2023-04-24T18:25:55.569Z,3.53
2023-04-24T18:28:23.090Z,3.70
2023-04-24T18:30:50.680Z,3.40
2023-04-24T18:33:19.097Z,3.57
2023-04-24T18:35:47.343Z,3.63
2023-04-24T18:38:14.913Z,3.30
2023-04-24T18:40:42.476Z,3.40
2023-04-24T18:43:10.739Z,3.50
2023-04-24T18:45:38.652Z,3.60
2023-04-24T18:48:06.252Z,3.60
2023-04-24T18:50:33.779Z,3.83
2023-04-24T18:53:01.295Z,3.70
2023-04-24T18:55:28.825Z,3.60
2023-04-24T18:57:57.108Z,3.83
2023-04-24T19:00:25.716Z,4.07
2023-04-24T19:02:53.345Z,4.20
2023-04-24T19:05:20.766Z,4.23
2023-04-24T19:07:48.323Z,4.63
2023-04-24T19:10:15.844Z,5.07
2023-04-24T19:12:43.375Z,5.90
2023-04-24T19:15:11.918Z,5.40
2023-04-24T19:17:39.474Z,6.00
2023-04-24T19:20:07.145Z,5.13
2023-04-24T19:22:34.984Z,5.10
2023-04-24T19:25:02.517Z,5.60
2023-04-24T19:27:30.042Z,4.77
2023-04-24T19:29:57.610Z,5.20
2023-04-24T19:32:25.296Z,4.97
2023-04-24T19:34:52.738Z,5.27
2023-04-24T19:37:21.080Z,4.60
2023-04-24T19:39:48.593Z,5.50
2023-04-24T19:42:16.132Z,4.90
2023-04-24T19:44:44.566Z,5.07
2023-04-24T19:47:12.079Z,5.53
2023-04-24T19:49:39.598Z,5.50
2023-04-24T19:52:07.712Z,5.27
2023-04-24T19:54:35.237Z,6.82
2023-04-24T19:57:02.791Z,6.07
2023-04-24T19:59:31.338Z,7.22
2023-04-24T20:01:57.989Z,7.87
2023-04-24T20:04:26.471Z,6.13
2023-04-24T20:06:54.121Z,7.13
2023-04-24T20:09:21.676Z,6.50
2023-04-24T20:11:49.941Z,7.33
2023-04-24T20:14:17.525Z,6.60
2023-04-24T20:16:45.059Z,7.30
2023-04-24T20:19:15.220Z,7.30
2023-04-24T20:21:42.793Z,7.30
2023-04-24T20:24:10.327Z,8.50
2023-04-24T20:26:37.852Z,9.13
2023-04-24T20:29:05.432Z,8.00
2023-04-24T20:31:33.096Z,6.97
2023-04-24T20:34:01.252Z,7.10
2023-04-24T20:36:28.845Z,6.60
2023-04-24T20:38:56.399Z,7.60
2023-04-24T20:41:23.932Z,7.23
2023-04-24T20:43:51.595Z,9.90
2023-04-24T20:46:19.320Z,8.57
2023-04-24T20:48:46.976Z,7.27
2023-04-24T20:51:15.410Z,7.47
2023-04-24T20:53:42.932Z,7.80
2023-04-24T20:56:10.476Z,7.57
2023-04-24T20:58:38.064Z,9.00
2023-04-24T21:01:06.442Z,10.70
2023-04-24T21:03:34.022Z,8.67
2023-04-24T21:06:02.471Z,8.10
2023-04-24T21:08:30.811Z,7.37
2023-04-24T21:10:58.334Z,8.03
2023-04-24T21:13:25.950Z,8.73
2023-04-24T21:15:53.496Z,8.37
2023-04-24T21:18:21.039Z,8.00
2023-04-24T21:20:48.633Z,8.37
2023-04-24T21:23:16.941Z,8.20
2023-04-24T21:25:44.459Z,8.03
2023-04-24T21:28:12.034Z,7.77
2023-04-24T21:30:40.326Z,8.37
2023-04-24T21:33:07.910Z,8.17
2023-04-24T21:35:36.222Z,10.57
2023-04-24T21:38:03.755Z,10.83
2023-04-24T21:40:31.282Z,10.20
2023-04-24T21:42:58.857Z,10.60
2023-04-24T21:45:26.402Z,9.20
2023-04-24T21:47:53.972Z,8.97
2023-04-24T21:50:21.511Z,8.47
2023-04-24T21:52:49.805Z,9.03
2023-04-24T21:55:17.353Z,8.90
2023-04-24T21:57:45.685Z,8.40
2023-04-24T22:00:13.192Z,8.63
2023-04-24T22:02:40.826Z,8.80
2023-04-24T22:05:09.223Z,8.63
2023-04-24T22:07:37.534Z,9.07
2023-04-24T22:10:05.176Z,8.23
2023-04-24T22:12:33.452Z,8.77
2023-04-24T22:15:01.001Z,10.82
2023-04-24T22:17:28.575Z,9.33
2023-04-24T22:19:56.895Z,9.43
2023-04-24T22:22:24.431Z,8.23
2023-04-24T22:24:51.955Z,8.80
2023-04-24T22:27:19.541Z,9.93
2023-04-24T22:29:47.148Z,8.40
2023-04-24T22:32:14.670Z,9.00
2023-04-24T22:34:42.217Z,11.45
2023-04-24T22:37:09.781Z,9.73
2023-04-24T22:39:37.491Z,9.13
2023-04-24T22:42:05.031Z,9.50
2023-04-24T22:44:32.589Z,9.90
2023-04-24T22:47:00.144Z,9.57
2023-04-24T22:49:27.794Z,9.00
2023-04-24T22:51:55.516Z,9.07
2023-04-24T22:54:23.053Z,8.43
2023-04-24T22:56:51.355Z,8.67
2023-04-24T22:59:18.909Z,8.93
2023-04-24T23:01:46.526Z,7.93
2023-04-24T23:04:14.096Z,9.37
2023-04-24T23:06:41.547Z,8.67
2023-04-24T23:09:09.071Z,9.13
2023-04-24T23:11:36.615Z,9.23
2023-04-24T23:14:04.175Z,9.40
2023-04-24T23:16:31.725Z,9.33
2023-04-24T23:18:59.242Z,8.63
2023-04-24T23:21:26.826Z,9.50
2023-04-24T23:23:55.121Z,9.53
2023-04-24T23:26:22.658Z,9.13
2023-04-24T23:28:51.216Z,9.60
2023-04-24T23:31:18.584Z,9.87
2023-04-24T23:33:46.232Z,9.53
2023-04-24T23:36:13.691Z,9.60
2023-04-24T23:38:49.602Z,10.23
2023-04-24T23:41:08.770Z,12.37
2023-04-24T23:43:36.384Z,11.30
2023-04-24T23:46:04.751Z,10.23
2023-04-24T23:48:32.257Z,9.80
2023-04-24T23:50:59.847Z,9.40
2023-04-24T23:53:27.376Z,9.40
2023-04-24T23:55:54.896Z,8.83
2023-04-24T23:58:24.084Z,8.90
